Time;durP1;ratioP1;P1;durP2;ratioP2;P2;SDS_P1;SDS_P2;PMS_P1;PMS_P2;Temp;Humidity;BMP_temperature;BMP_pressure;BME280_temperature;BME280_humidity;BME280_pressure;Samples;Min_cycle;Max_cycle;Signal;HPM_P1;HPM_P2
2023/07/22 00:00:29;;;;;;;5.70;4.05;;;;;;;16.37;100.00;99890.41;5054706;28;20037;-77
2023/07/22 00:02:55;;;;;;;4.88;4.00;;;;;;;16.32;100.00;99907.78;5054994;28;20029;-77
2023/07/22 00:05:23;;;;;;;5.85;4.50;;;;;;;16.29;100.00;99905.97;5055108;28;20047;-75
2023/07/22 00:07:50;;;;;;;5.13;3.97;;;;;;;16.29;100.00;99908.88;5055202;28;20033;-76
2023/07/22 00:10:16;;;;;;;5.82;4.78;;;;;;;16.24;100.00;99906.84;5037335;28;20043;-75
2023/07/22 00:12:50;;;;;;;5.40;3.83;;;;;;;16.19;100.00;99911.34;5033533;28;20054;-75
2023/07/22 00:15:16;;;;;;;4.65;3.90;;;;;;;16.08;100.00;99879.75;5035121;28;20125;-76
2023/07/22 00:17:42;;;;;;;5.57;3.85;;;;;;;16.09;100.00;99887.09;5034329;28;20034;-76
2023/07/22 00:20:11;;;;;;;4.40;4.00;;;;;;;16.06;100.00;99885.28;5035058;28;20385;-76
2023/07/22 00:22:40;;;;;;;5.90;4.30;;;;;;;15.97;100.00;99874.88;5034937;28;20052;-75
2023/07/22 00:25:10;;;;;;;7.10;4.40;;;;;;;15.92;100.00;99878.63;5033597;28;20032;-76
2023/07/22 00:27:48;;;;;;;6.70;3.92;;;;;;;15.97;100.00;99897.94;5033368;28;20429;-77
2023/07/22 00:30:15;;;;;;;6.65;4.05;;;;;;;15.95;100.00;99912.13;5034564;28;20076;-76
2023/07/22 00:32:41;;;;;;;5.20;4.00;;;;;;;15.87;100.00;99905.38;5034566;28;20064;-77
2023/07/22 00:35:09;;;;;;;6.68;4.07;;;;;;;15.77;100.00;99894.75;5033192;28;20375;-76
2023/07/22 00:37:36;;;;;;;6.72;4.10;;;;;;;15.86;100.00;99921.13;5034577;28;20033;-77
2023/07/22 00:40:11;;;;;;;4.95;4.40;;;;;;;15.79;100.00;99924.59;5034541;28;20028;-75
2023/07/22 00:42:36;;;;;;;7.30;3.92;;;;;;;15.79;100.00;99926.72;5017256;28;20033;-75
2023/07/22 00:45:03;;;;;;;8.13;4.70;;;;;;;15.73;100.00;99932.53;5032923;28;20043;-76
2023/07/22 00:47:36;;;;;;;5.80;4.40;;;;;;;15.72;100.00;99933.81;5034214;28;20055;-77
2023/07/22 00:50:07;;;;;;;6.05;5.38;;;;;;;15.64;100.00;99927.09;5034072;28;20036;-76
2023/07/22 00:52:37;;;;;;;5.65;5.15;;;;;;;15.59;100.00;99945.22;5033049;28;20029;-76
2023/07/22 00:55:05;;;;;;;5.45;4.68;;;;;;;15.54;100.00;99925.84;5016453;28;20029;-77
2023/07/22 00:57:32;;;;;;;5.93;4.57;;;;;;;15.49;100.00;99929.56;5016211;28;20041;-77
2023/07/22 01:00:00;;;;;;;7.03;4.25;;;;;;;15.44;100.00;99928.28;5034056;28;20466;-74
2023/07/22 01:02:28;;;;;;;7.80;4.63;;;;;;;15.42;100.00;99933.78;5032878;28;20033;-75
2023/07/22 01:04:55;;;;;;;6.75;4.75;;;;;;;15.38;100.00;99921.78;5033958;28;20068;-75
2023/07/22 01:07:21;;;;;;;5.88;4.60;;;;;;;15.41;100.00;99920.75;5033960;28;20227;-75
2023/07/22 01:09:48;;;;;;;5.07;4.60;;;;;;;15.39;100.00;99922.59;5033561;28;20108;-78
2023/07/22 01:12:15;;;;;;;7.60;4.90;;;;;;;15.44;100.00;99931.19;5041730;28;20049;-77
2023/07/22 01:14:42;;;;;;;6.18;5.25;;;;;;;15.37;100.00;99917.34;5051959;28;20021;-75
2023/07/22 01:17:09;;;;;;;7.32;4.15;;;;;;;15.41;100.00;99938.03;5035299;28;20045;-76
2023/07/22 01:19:35;;;;;;;8.57;4.90;;;;;;;15.36;100.00;99932.31;5019325;28;20036;-76
2023/07/22 01:22:03;;;;;;;8.05;4.30;;;;;;;15.33;100.00;99939.91;5035536;28;20098;-75
2023/07/22 01:24:30;;;;;;;5.60;4.68;;;;;;;15.27;100.00;99928.41;5019222;28;20041;-77
2023/07/22 01:26:55;;;;;;;5.63;4.07;;;;;;;15.26;100.00;99932.63;5035771;28;20037;-78
2023/07/22 01:29:25;;;;;;;7.20;4.20;;;;;;;15.23;100.00;99924.28;5035861;28;20112;-76
2023/07/22 01:31:53;;;;;;;6.10;4.80;;;;;;;15.18;100.00;99930.84;5035795;28;20037;-76
2023/07/22 01:34:20;;;;;;;7.13;4.70;;;;;;;15.15;100.00;99929.84;5035612;28;20071;-75
2023/07/22 01:36:48;;;;;;;5.38;4.47;;;;;;;15.12;100.00;99939.53;5053229;28;20028;-77
2023/07/22 01:39:16;;;;;;;5.38;4.88;;;;;;;15.11;100.00;99949.50;5018936;28;20028;-78
2023/07/22 01:41:42;;;;;;;6.65;5.10;;;;;;;15.10;100.00;99950.81;5035721;28;20033;-75
2023/07/22 01:44:14;;;;;;;6.80;4.93;;;;;;;14.97;100.00;99941.97;5053035;28;20501;-77
2023/07/22 01:46:41;;;;;;;5.03;4.47;;;;;;;14.96;100.00;99956.91;5053230;28;20033;-76
2023/07/22 01:49:12;;;;;;;5.93;5.00;;;;;;;14.95;100.00;99964.75;5053380;28;20037;-76
2023/07/22 01:51:39;;;;;;;7.10;5.13;;;;;;;14.90;100.00;99973.41;5052899;28;20033;-76
2023/07/22 01:54:05;;;;;;;9.40;4.97;;;;;;;14.84;100.00;99967.69;5035117;28;20086;-74
2023/07/22 01:56:32;;;;;;;6.32;5.00;;;;;;;14.75;100.00;99970.88;5051654;28;20086;-75
2023/07/22 01:59:00;;;;;;;5.82;5.22;;;;;;;14.76;100.00;99975.31;5053264;28;20375;-75
2023/07/22 02:01:28;;;;;;;9.90;5.60;;;;;;;14.72;100.00;99971.94;5035384;28;20511;-75
2023/07/22 02:03:54;;;;;;;6.70;5.53;;;;;;;14.73;100.00;99973.50;5053153;28;20029;-76
2023/07/22 02:06:22;;;;;;;7.50;5.32;;;;;;;14.64;100.00;99973.78;5035229;28;20032;-76
2023/07/22 02:08:47;;;;;;;7.38;5.45;;;;;;;14.66;100.00;99979.81;5035352;28;20064;-76
2023/07/22 02:11:14;;;;;;;6.65;5.47;;;;;;;14.65;100.00;99981.91;5034655;28;20068;-76
2023/07/22 02:13:39;;;;;;;5.82;5.20;;;;;;;14.59;100.00;99981.13;5052941;28;20048;-77
2023/07/22 02:16:06;;;;;;;6.47;5.88;;;;;;;14.54;100.00;99981.91;5052237;28;20075;-76
2023/07/22 02:18:32;;;;;;;7.15;5.95;;;;;;;14.57;100.00;99985.84;5052690;28;20450;-76
2023/07/22 02:20:59;;;;;;;11.93;6.95;;;;;;;14.49;100.00;99979.84;5052995;28;20025;-77
2023/07/22 02:23:25;;;;;;;7.40;6.47;;;;;;;14.51;100.00;99987.94;5052831;28;20036;-76
2023/07/22 02:25:59;;;;;;;10.35;6.05;;;;;;;14.48;100.00;99983.25;5052584;28;20063;-77
2023/07/22 02:28:26;;;;;;;11.13;7.45;;;;;;;14.42;100.00;99981.19;5034911;28;20028;-75
2023/07/22 02:30:52;;;;;;;9.85;6.30;;;;;;;14.42;100.00;99992.69;5018390;28;20037;-75
2023/07/22 02:33:26;;;;;;;10.73;7.10;;;;;;;14.46;100.00;99997.38;5052961;28;20051;-76
2023/07/22 02:35:53;;;;;;;9.43;7.03;;;;;;;14.48;100.00;99991.88;5035106;28;20052;-76
2023/07/22 02:38:18;;;;;;;7.65;6.85;;;;;;;14.49;100.00;99988.47;5052548;28;20048;-77
2023/07/22 02:40:47;;;;;;;7.97;6.88;;;;;;;14.57;100.00;99989.50;5018303;28;20036;-75
2023/07/22 02:43:34;;;;;;;7.60;6.80;;;;;;;14.65;100.00;99998.38;5051857;28;20037;-76
2023/07/22 02:46:05;;;;;;;12.25;7.60;;;;;;;14.69;100.00;99998.88;5052268;28;20036;-77
2023/07/22 02:48:31;;;;;;;10.85;7.28;;;;;;;14.74;100.00;100003.81;5035452;28;20048;-75
2023/07/22 02:51:11;;;;;;;7.63;6.53;;;;;;;14.81;100.00;100001.19;5034806;28;20394;-76
2023/07/22 02:53:37;;;;;;;7.85;6.20;;;;;;;14.79;100.00;99989.41;5051414;28;20032;-75
2023/07/22 02:56:06;;;;;;;10.80;6.60;;;;;;;14.91;100.00;99995.91;5018083;28;20033;-76
2023/07/22 02:58:34;;;;;;;10.32;6.63;;;;;;;14.98;100.00;100003.19;5035231;28;20032;-76
2023/07/22 03:01:02;;;;;;;6.97;5.88;;;;;;;14.84;100.00;99982.84;5018185;28;20374;-77
2023/07/22 03:03:36;;;;;;;7.18;6.38;;;;;;;15.00;100.00;100017.84;5052772;28;20040;-76
2023/07/22 03:06:04;;;;;;;9.98;6.32;;;;;;;14.96;100.00;100005.81;5054495;28;20044;-77
2023/07/22 03:08:30;;;;;;;14.10;6.70;;;;;;;15.02;100.00;100015.22;5038241;28;20037;-76
2023/07/22 03:10:58;;;;;;;7.90;6.40;;;;;;;15.05;100.00;100020.69;5056188;28;20032;-75
2023/07/22 03:13:24;;;;;;;7.10;6.43;;;;;;;15.01;100.00;100017.31;5034546;28;20455;-75
2023/07/22 03:15:52;;;;;;;9.10;6.82;;;;;;;15.09;100.00;100020.41;5035645;28;20112;-76
2023/07/22 03:18:17;;;;;;;7.30;5.82;;;;;;;15.10;100.00;100019.09;5035908;28;20049;-76
2023/07/22 03:20:43;;;;;;;6.47;5.78;;;;;;;15.12;100.00;100023.00;5035954;28;20048;-77
2023/07/22 03:23:09;;;;;;;5.82;5.22;;;;;;;15.14;100.00;100023.25;5035738;28;20025;-75
2023/07/22 03:25:35;;;;;;;7.43;5.80;;;;;;;15.14;100.00;100023.25;5035718;28;20109;-77
2023/07/22 03:28:03;;;;;;;6.70;5.53;;;;;;;15.16;100.00;100019.84;5035913;28;20466;-75
2023/07/22 03:30:30;;;;;;;8.60;5.65;;;;;;;15.18;100.00;100035.25;5034744;28;20049;-76
2023/07/22 03:32:56;;;;;;;6.47;5.88;;;;;;;15.20;100.00;100034.72;5034364;28;20476;-76
2023/07/22 03:35:22;;;;;;;10.13;5.78;;;;;;;15.21;100.00;100024.78;5035591;28;20071;-77
2023/07/22 03:37:48;;;;;;;5.80;5.00;;;;;;;15.30;100.00;100035.19;5034159;28;20360;-77
2023/07/22 03:40:19;;;;;;;11.52;5.38;;;;;;;15.23;100.00;100027.91;5035302;28;20049;-75
2023/07/22 03:42:55;;;;;;;7.75;4.80;;;;;;;15.34;100.00;100042.25;5035490;28;20029;-76
2023/07/22 03:45:29;;;;;;;6.93;5.32;;;;;;;15.37;100.00;100032.53;5034185;28;20071;-76
2023/07/22 03:48:00;;;;;;;5.82;4.95;;;;;;;15.37;100.00;100029.66;5034043;28;20073;-77
2023/07/22 03:50:30;;;;;;;6.97;5.03;;;;;;;15.30;100.00;100024.47;5035551;28;20029;-77
2023/07/22 03:52:56;;;;;;;6.45;4.75;;;;;;;15.47;100.00;100050.25;5034438;28;20033;-75
2023/07/22 03:55:22;;;;;;;8.55;4.45;;;;;;;15.51;100.00;100045.81;5035201;28;20152;-74
2023/07/22 03:57:48;;;;;;;5.22;4.60;;;;;;;15.53;100.00;100048.91;5035350;28;20033;-75
2023/07/22 04:00:16;;;;;;;6.15;4.88;;;;;;;15.58;100.00;100053.06;5034974;28;20102;-76
2023/07/22 04:02:42;;;;;;;6.80;4.82;;;;;;;15.56;100.00;100047.84;5035035;28;20466;-76
2023/07/22 04:05:10;;;;;;;6.95;5.20;;;;;;;15.61;100.00;100049.94;5050276;28;20033;-77
2023/07/22 04:07:36;;;;;;;8.73;4.72;;;;;;;15.63;100.00;100063.81;5035191;28;20042;-76
2023/07/22 04:10:04;;;;;;;5.90;5.10;;;;;;;15.62;100.00;100050.72;5035005;28;20032;-77
2023/07/22 04:12:31;;;;;;;6.82;4.13;;;;;;;15.58;100.00;100045.22;5045349;28;20051;-77
2023/07/22 04:14:56;;;;;;;7.40;4.80;;;;;;;15.57;100.00;100032.13;5053863;28;20035;-76
2023/07/22 04:17:22;;;;;;;6.82;5.00;;;;;;;15.63;100.00;100044.44;5053541;28;20037;-76
2023/07/22 04:19:58;;;;;;;7.57;4.93;;;;;;;15.65;100.00;100049.66;5054796;28;20121;-75
2023/07/22 04:22:28;;;;;;;7.53;5.80;;;;;;;15.62;100.00;100050.72;5054757;28;20025;-78
2023/07/22 04:24:55;;;;;;;8.15;5.57;;;;;;;15.69;100.00;100056.69;5037042;28;20033;-77
2023/07/22 04:27:21;;;;;;;9.98;5.60;;;;;;;15.73;100.00;100053.53;5054602;28;20025;-76
2023/07/22 04:29:48;;;;;;;7.28;5.47;;;;;;;15.72;100.00;100060.59;5054337;28;20060;-76
2023/07/22 04:32:14;;;;;;;9.95;5.55;;;;;;;15.65;100.00;100047.56;5036623;28;20029;-75
2023/07/22 04:34:42;;;;;;;9.00;5.47;;;;;;;15.89;100.00;100063.34;5054619;28;20036;-75
2023/07/22 04:37:09;;;;;;;10.07;5.32;;;;;;;16.01;100.00;100065.59;5036512;28;20059;-76
2023/07/22 04:39:34;;;;;;;7.68;5.65;;;;;;;16.02;100.00;100063.50;5054413;28;20024;-77
2023/07/22 04:42:01;;;;;;;6.28;5.10;;;;;;;16.08;100.00;100064.25;5019803;28;20083;-74
2023/07/22 04:44:28;;;;;;;7.63;4.65;;;;;;;16.11;100.00;100069.69;5034267;28;20071;-77
2023/07/22 04:46:55;;;;;;;9.88;5.00;;;;;;;16.15;100.00;100066.56;5019850;28;20450;-76
2023/07/22 04:49:22;;;;;;;7.85;4.68;;;;;;;16.15;100.00;100065.75;5053977;28;20375;-75
2023/07/22 04:51:47;;;;;;;8.50;5.13;;;;;;;16.12;100.00;100071.28;5036047;28;20028;-77
2023/07/22 04:54:14;;;;;;;7.30;4.60;;;;;;;16.11;100.00;100074.69;5019920;28;20078;-76
2023/07/22 04:56:41;;;;;;;5.82;4.47;;;;;;;16.14;100.00;100076.50;5019756;28;20037;-76
2023/07/22 04:59:09;;;;;;;8.50;4.70;;;;;;;16.18;100.00;100076.22;5036083;28;20539;-76
2023/07/22 05:01:36;;;;;;;13.65;4.43;;;;;;;16.17;100.00;100077.53;5053984;28;20033;-76
2023/07/22 05:04:04;;;;;;;6.35;4.55;;;;;;;16.21;100.00;100072.25;5053956;28;20033;-75
2023/07/22 05:06:31;;;;;;;10.77;4.22;;;;;;;16.23;100.00;100070.41;5036231;28;20031;-76
2023/07/22 05:08:56;;;;;;;13.80;4.60;;;;;;;16.38;100.00;100088.09;5035844;28;20021;-75
2023/07/22 05:11:23;;;;;;;5.68;3.75;;;;;;;16.45;100.00;100081.69;5052353;28;20065;-74
2023/07/22 05:13:49;;;;;;;9.88;3.70;;;;;;;16.52;100.00;100086.88;5053518;28;20024;-75
2023/07/22 05:16:16;;;;;;;5.13;3.40;;;;;;;16.55;100.00;100090.81;5053997;28;20027;-75
2023/07/22 05:18:44;;;;;;;5.15;3.50;;;;;;;16.51;100.00;100093.19;5053134;28;20045;-74
2023/07/22 05:21:11;;;;;;;6.38;3.13;;;;;;;16.57;100.00;100099.72;5053802;28;20120;-74
2023/07/22 05:23:38;;;;;;;4.35;3.03;;;;;;;16.61;100.00;100090.75;5053527;28;20039;-75
2023/07/22 05:26:06;;;;;;;3.55;3.15;;;;;;;16.57;100.00;100093.94;5035481;28;20047;-75
2023/07/22 05:28:32;;;;;;;3.05;2.65;;;;;;;16.59;100.00;100107.84;5053492;28;20029;-74
2023/07/22 05:30:58;;;;;;;3.38;2.97;;;;;;;16.65;100.00;100099.91;5051432;28;20466;-75
2023/07/22 05:33:24;;;;;;;3.10;2.85;;;;;;;16.71;100.00;100106.38;5051790;28;20035;-76
2023/07/22 05:35:50;;;;;;;5.97;2.72;;;;;;;16.75;100.00;100106.88;5051739;28;20457;-76
2023/07/22 05:38:16;;;;;;;3.80;3.05;;;;;;;16.68;100.00;100101.72;5051507;28;20037;-76
2023/07/22 05:40:41;;;;;;;5.30;2.67;;;;;;;16.72;100.00;100113.72;5052215;28;20047;-75
2023/07/22 05:43:06;;;;;;;4.05;2.97;;;;;;;16.72;100.00;100105.84;5051153;28;20036;-74
2023/07/22 05:45:33;;;;;;;6.63;2.75;;;;;;;16.76;100.00;100108.44;5051639;28;20114;-76
2023/07/22 05:47:58;;;;;;;4.85;2.90;;;;;;;16.85;100.00;100111.75;5061182;28;20128;-75
2023/07/22 05:50:25;;;;;;;3.40;2.63;;;;;;;16.88;100.00;100098.34;5052938;28;20087;-73
2023/07/22 05:52:51;;;;;;;3.30;3.00;;;;;;;16.87;100.00;100111.22;5037826;28;20085;-76
2023/07/22 05:55:17;;;;;;;3.85;2.45;;;;;;;16.98;100.00;100108.19;5041614;28;20036;-74
2023/07/22 05:57:42;;;;;;;3.45;2.83;;;;;;;17.12;100.00;100103.31;5042761;28;20051;-76
2023/07/22 06:00:08;;;;;;;3.70;2.45;;;;;;;17.25;100.00;100109.94;5048775;28;20045;-74
2023/07/22 06:02:35;;;;;;;5.68;2.70;;;;;;;17.37;100.00;100122.16;5034733;28;20048;-75
2023/07/22 06:05:01;;;;;;;3.55;2.63;;;;;;;17.43;100.00;100105.53;5042875;28;20155;-74
2023/07/22 06:07:29;;;;;;;4.10;2.92;;;;;;;17.55;100.00;100112.72;5051764;28;20406;-74
2023/07/22 06:09:55;;;;;;;2.83;2.58;;;;;;;17.66;100.00;100117.56;5052293;28;20047;-74
2023/07/22 06:12:20;;;;;;;4.65;2.53;;;;;;;17.79;100.00;100121.31;5052026;28;20402;-74
2023/07/22 06:14:46;;;;;;;2.95;2.30;;;;;;;18.27;100.00;100117.41;5027225;28;20042;-74
2023/07/22 06:17:11;;;;;;;4.15;2.67;;;;;;;19.05;100.00;100123.91;5052009;28;20037;-74
2023/07/22 06:19:42;;;;;;;6.22;2.90;;;;;;;19.73;100.00;100121.94;5051688;28;20047;-77
2023/07/22 06:22:08;;;;;;;4.32;2.30;;;;;;;20.08;100.00;100114.81;5051517;28;20061;-75
2023/07/22 06:24:46;;;;;;;3.75;2.42;;;;;;;20.29;100.00;100109.03;5051119;28;20079;-75
2023/07/22 06:27:11;;;;;;;4.78;2.42;;;;;;;20.33;100.00;100123.97;5052210;28;20033;-75
2023/07/22 06:29:36;;;;;;;3.55;2.58;;;;;;;20.33;100.00;100107.34;5052751;28;20045;-77
2023/07/22 06:32:02;;;;;;;4.35;2.15;;;;;;;20.63;100.00;100123.47;5051859;28;20036;-76
2023/07/22 06:34:29;;;;;;;5.68;2.10;;;;;;;21.28;100.00;100109.78;5051377;28;20059;-75
2023/07/22 06:36:56;;;;;;;4.97;2.30;;;;;;;22.21;100.00;100110.38;5051968;28;20033;-75
2023/07/22 06:39:22;;;;;;;3.85;1.95;;;;;;;22.91;100.00;100104.78;5041040;28;20512;-75
2023/07/22 06:41:47;;;;;;;5.18;2.50;;;;;;;23.43;100.00;100105.22;5055121;28;20037;-75
2023/07/22 06:44:15;;;;;;;2.60;1.85;;;;;;;24.08;100.00;100120.69;5055235;28;20029;-74
2023/07/22 06:46:41;;;;;;;2.50;1.88;;;;;;;24.27;93.92;100126.06;5055861;28;20039;-76
2023/07/22 06:49:09;;;;;;;6.22;2.20;;;;;;;24.02;92.79;100123.06;5054929;28;20090;-75
2023/07/22 06:51:35;;;;;;;3.58;2.42;;;;;;;23.48;94.90;100124.66;5055460;28;20359;-76
2023/07/22 06:54:03;;;;;;;2.10;1.90;;;;;;;23.07;96.19;100123.00;5055566;28;20028;-75
2023/07/22 06:56:30;;;;;;;6.07;2.63;;;;;;;22.84;100.00;100129.59;5055870;28;20032;-74
2023/07/22 06:58:56;;;;;;;4.15;2.17;;;;;;;22.91;100.00;100133.91;5037815;28;20025;-75
2023/07/22 07:01:23;;;;;;;4.97;2.15;;;;;;;22.88;100.00;100132.94;5054900;28;20402;-74
2023/07/22 07:03:48;;;;;;;4.53;2.40;;;;;;;22.66;100.00;100130.78;5037646;28;20095;-76
2023/07/22 07:06:15;;;;;;;4.22;2.40;;;;;;;22.51;100.00;100136.63;5040007;28;20033;-74
2023/07/22 07:08:41;;;;;;;2.78;2.20;;;;;;;22.38;100.00;100142.59;5052606;28;20033;-75
2023/07/22 07:11:07;;;;;;;2.65;2.08;;;;;;;22.49;100.00;100127.66;5045695;28;20036;-77
2023/07/22 07:13:34;;;;;;;3.33;2.30;;;;;;;23.16;100.00;100146.50;5054865;28;20134;-75
2023/07/22 07:16:20;;;;;;;5.28;1.98;;;;;;;24.03;94.34;100145.84;5049988;28;20040;-75
2023/07/22 07:18:45;;;;;;;4.60;2.03;;;;;;;24.62;90.25;100160.66;5049542;28;20123;-75
2023/07/22 07:21:11;;;;;;;6.45;2.20;;;;;;;25.11;87.93;100158.34;5054185;28;20115;-74
2023/07/22 07:23:48;;;;;;;4.25;2.22;;;;;;;25.58;82.10;100163.88;5055128;28;20044;-80
2023/07/22 07:26:22;;;;;;;2.55;2.10;;;;;;;25.78;77.58;100159.75;5037995;28;20040;-77
2023/07/22 07:28:59;;;;;;;6.40;2.30;;;;;;;25.87;74.60;100149.50;5054513;28;20101;-75
2023/07/22 07:31:27;;;;;;;3.58;2.15;;;;;;;25.74;79.20;100162.34;5041886;28;20100;-75
2023/07/22 07:33:52;;;;;;;2.95;2.30;;;;;;;26.26;79.58;100160.13;5049431;28;20033;-73
2023/07/22 07:36:26;;;;;;;2.25;1.92;;;;;;;26.79;70.21;100176.16;5030549;28;20109;-75
2023/07/22 07:38:58;;;;;;;3.47;1.70;;;;;;;27.47;70.27;100163.22;5054823;28;20041;-76
2023/07/22 07:41:23;;;;;;;2.45;1.70;;;;;;;28.30;69.31;100157.75;5054316;28;20479;-75
2023/07/22 07:43:48;;;;;;;1.73;1.63;;;;;;;28.91;58.43;100185.75;5054181;28;20036;-75
2023/07/22 07:46:21;;;;;;;4.40;1.85;;;;;;;28.64;50.19;100188.19;5054874;28;20036;-74
2023/07/22 07:48:50;;;;;;;2.10;1.63;;;;;;;27.93;48.21;100198.34;5054622;28;20056;-76
2023/07/22 07:51:18;;;;;;;3.95;1.67;;;;;;;28.11;55.73;100178.38;5043333;28;20107;-76
2023/07/22 07:53:44;;;;;;;3.15;1.40;;;;;;;28.72;55.63;100186.59;5046636;28;20120;-79
2023/07/22 07:56:10;;;;;;;3.40;2.33;;;;;;;29.19;47.84;100187.00;5042320;28;20052;-80
2023/07/22 07:58:36;;;;;;;2.28;1.60;;;;;;;29.40;46.33;100189.97;5053405;28;20040;-79
2023/07/22 08:01:08;;;;;;;1.73;1.38;;;;;;;29.35;46.62;100193.28;5054275;28;20033;-78
2023/07/22 08:03:34;;;;;;;3.55;1.70;;;;;;;29.67;49.04;100186.72;5054682;28;20508;-80
2023/07/22 08:06:02;;;;;;;2.75;1.60;;;;;;;30.15;45.03;100195.16;5052939;28;20033;-80
2023/07/22 08:08:29;;;;;;;4.28;1.70;;;;;;;30.22;45.68;100199.31;5053772;28;20524;-79
2023/07/22 08:11:01;;;;;;;2.20;1.60;;;;;;;30.56;43.63;100196.41;5029000;28;20128;-79
2023/07/22 08:13:27;;;;;;;3.70;1.73;;;;;;;30.37;41.56;100205.47;5044725;28;20049;-80
2023/07/22 08:15:53;;;;;;;4.05;1.70;;;;;;;30.20;42.54;100202.09;5054288;28;20017;-79
2023/07/22 08:18:20;;;;;;;2.42;1.70;;;;;;;29.81;42.35;100211.28;5042530;28;20044;-80
2023/07/22 08:20:48;;;;;;;2.17;1.60;;;;;;;29.72;43.06;100223.91;5054541;28;20036;-79
2023/07/22 08:23:14;;;;;;;2.97;1.50;;;;;;;29.43;45.24;100215.22;5035671;28;20037;-80
2023/07/22 08:25:39;;;;;;;2.50;1.70;;;;;;;29.12;46.60;100203.47;5048794;28;20029;-79
2023/07/22 08:28:04;;;;;;;2.50;1.52;;;;;;;28.61;43.87;100218.84;5053731;28;20390;-80
2023/07/22 08:30:31;;;;;;;3.78;1.70;;;;;;;28.37;45.79;100211.91;5054222;28;20074;-78
2023/07/22 08:32:56;;;;;;;4.03;1.85;;;;;;;28.32;47.27;100204.94;5052661;28;20498;-79
2023/07/22 08:35:23;;;;;;;3.35;1.60;;;;;;;28.52;45.67;100217.47;5046998;28;20028;-80
2023/07/22 08:37:51;;;;;;;3.22;1.50;;;;;;;28.42;47.23;100220.41;5053905;28;20129;-79
2023/07/22 08:40:18;;;;;;;3.05;1.48;;;;;;;28.34;47.49;100213.91;5054109;28;20033;-78
2023/07/22 08:42:44;;;;;;;1.80;1.30;;;;;;;28.48;46.11;100208.34;5053167;28;20033;-78
2023/07/22 08:45:11;;;;;;;1.20;1.10;;;;;;;28.38;42.75;100220.09;5053976;28;20092;-78
2023/07/22 08:47:46;;;;;;;4.55;1.25;;;;;;;28.21;44.68;100198.94;5037411;28;20039;-75
2023/07/22 08:50:15;;;;;;;3.35;1.45;;;;;;;27.99;45.59;100203.91;5056069;28;20516;-75
2023/07/22 08:52:42;;;;;;;1.55;1.23;;;;;;;27.69;47.25;100207.44;5055184;28;20049;-75
2023/07/22 08:55:10;;;;;;;2.08;1.27;;;;;;;27.40;51.94;100211.13;5036707;28;20028;-76
2023/07/22 08:57:42;;;;;;;2.17;1.30;;;;;;;27.60;48.56;100197.97;5025469;28;20045;-78
2023/07/22 09:00:09;;;;;;;1.42;1.33;;;;;;;27.95;46.88;100204.34;5039882;28;20033;-78
2023/07/22 09:02:40;;;;;;;2.00;1.00;;;;;;;28.12;45.00;100217.34;5052380;28;20414;-73
2023/07/22 09:05:07;;;;;;;3.90;1.33;;;;;;;28.38;43.74;100220.09;5053524;28;20033;-74
2023/07/22 09:07:48;;;;;;;1.17;1.10;;;;;;;28.60;43.58;100215.13;5040709;28;20036;-73
2023/07/22 09:10:15;;;;;;;2.30;1.23;;;;;;;28.88;41.76;100219.38;5023098;28;20455;-78
2023/07/22 09:12:41;;;;;;;5.70;1.33;;;;;;;28.89;38.18;100215.78;5051689;28;20311;-80
2023/07/22 09:15:10;;;;;;;1.50;1.20;;;;;;;28.91;42.17;100226.16;5034642;28;20035;-78
2023/07/22 09:17:36;;;;;;;3.40;1.23;;;;;;;29.08;39.60;100220.88;5040758;28;20032;-78
2023/07/22 09:20:03;;;;;;;3.05;1.42;;;;;;;29.22;39.86;100232.88;5050654;28;20182;-78
2023/07/22 09:22:29;;;;;;;3.63;1.40;;;;;;;29.03;38.37;100224.13;5053482;28;20466;-78
2023/07/22 09:25:14;;;;;;;1.33;1.20;;;;;;;28.62;39.05;100227.03;5053361;28;20029;-78
2023/07/22 09:27:39;;;;;;;2.72;1.40;;;;;;;28.32;40.31;100221.81;5052151;28;20029;-79
2023/07/22 09:30:20;;;;;;;1.67;1.35;;;;;;;28.17;41.21;100216.25;5052254;28;20035;-77
2023/07/22 09:32:46;;;;;;;3.17;1.50;;;;;;;27.95;39.85;100222.00;5052269;28;20028;-77
2023/07/22 09:35:11;;;;;;;2.22;1.92;;;;;;;27.40;41.73;100236.75;5052190;28;20029;-78
2023/07/22 09:37:38;;;;;;;1.67;1.30;;;;;;;26.85;44.34;100223.56;5052161;28;20029;-78
2023/07/22 09:40:24;;;;;;;2.92;1.30;;;;;;;26.47;47.22;100211.63;5053287;28;20104;-77
2023/07/22 09:42:52;;;;;;;6.43;1.63;;;;;;;26.53;47.49;100224.59;5051807;28;20039;-77
2023/07/22 09:45:20;;;;;;;4.72;1.80;;;;;;;26.59;47.46;100224.31;5052071;28;20111;-78
2023/07/22 09:47:47;;;;;;;3.83;1.90;;;;;;;26.72;47.33;100224.72;5052274;28;20028;-79
2023/07/22 09:50:23;;;;;;;2.90;1.50;;;;;;;27.04;45.69;100217.78;5053092;28;20111;-79
2023/07/22 09:52:54;;;;;;;1.52;1.42;;;;;;;27.31;42.34;100222.81;5053795;28;20127;-80
2023/07/22 09:55:24;;;;;;;4.65;2.00;;;;;;;26.97;41.83;100221.59;5053510;28;20021;-79
2023/07/22 09:57:54;;;;;;;2.22;1.75;;;;;;;26.54;44.65;100226.16;5053368;28;20032;-79
2023/07/22 10:00:23;;;;;;;3.70;1.60;;;;;;;26.32;47.33;100225.06;5052940;28;20029;-79
2023/07/22 10:02:49;;;;;;;3.08;1.70;;;;;;;26.17;44.73;100233.31;5053192;28;20067;-77
2023/07/22 10:05:19;;;;;;;2.72;1.90;;;;;;;25.83;44.04;100216.50;5052964;28;20067;-78
2023/07/22 10:07:56;;;;;;;4.68;2.20;;;;;;;25.68;46.58;100222.56;5053260;28;20090;-78
2023/07/22 10:10:26;;;;;;;4.00;2.03;;;;;;;25.69;48.23;100233.63;5051927;28;20024;-80
2023/07/22 10:12:53;;;;;;;4.65;2.20;;;;;;;25.80;48.22;100226.50;5051809;28;20137;-79
2023/07/22 10:15:19;;;;;;;4.43;1.90;;;;;;;26.14;47.74;100228.66;5054771;28;20478;-78
2023/07/22 10:17:45;;;;;;;2.15;2.00;;;;;;;26.39;43.85;100225.59;5055731;28;20090;-80
2023/07/22 10:20:15;;;;;;;3.17;2.17;;;;;;;26.23;43.04;100219.16;5039210;28;20089;-78
2023/07/22 10:22:44;;;;;;;3.55;2.13;;;;;;;25.85;43.65;100225.47;5072285;28;20036;-78
2023/07/22 10:25:12;;;;;;;3.17;1.90;;;;;;;25.60;45.06;100233.53;5057285;28;20025;-77
2023/07/22 10:27:39;;;;;;;4.45;1.80;;;;;;;25.42;46.41;100241.50;5055684;28;20029;-77
2023/07/22 10:30:05;;;;;;;3.42;1.80;;;;;;;25.09;45.73;100234.22;5056813;28;20057;-77
2023/07/22 10:32:32;;;;;;;3.42;2.17;;;;;;;24.97;46.55;100237.59;5056766;28;20421;-77
2023/07/22 10:34:58;;;;;;;1.95;1.80;;;;;;;24.99;46.81;100243.63;5057058;28;20095;-77
2023/07/22 10:37:30;;;;;;;2.20;1.80;;;;;;;25.05;47.55;100229.53;5056527;28;20507;-78
2023/07/22 10:39:59;;;;;;;5.20;2.72;;;;;;;25.04;47.06;100238.91;5055410;28;20512;-79
2023/07/22 10:42:25;;;;;;;6.18;2.10;;;;;;;24.82;46.24;100248.59;5056775;28;20064;-78
2023/07/22 10:44:51;;;;;;;3.03;1.65;;;;;;;24.60;49.22;100244.44;5056549;28;20094;-77
2023/07/22 10:47:35;;;;;;;2.25;2.05;;;;;;;24.30;49.08;100239.56;5057059;28;20040;-79
2023/07/22 10:50:07;;;;;;;5.18;2.00;;;;;;;24.15;50.90;100239.59;5056886;28;20039;-78
2023/07/22 10:52:42;;;;;;;2.20;1.70;;;;;;;24.09;50.97;100239.84;5055323;28;20360;-79
2023/07/22 10:55:15;;;;;;;3.88;1.92;;;;;;;24.04;52.23;100225.44;5055229;28;20433;-79
2023/07/22 10:57:49;;;;;;;1.90;1.60;;;;;;;23.83;49.09;100211.13;5056742;28;20029;-79
2023/07/22 11:00:21;;;;;;;2.75;1.77;;;;;;;23.79;51.53;100220.28;5056472;28;20107;-78
2023/07/22 11:03:04;;;;;;;3.22;2.13;;;;;;;23.59;47.84;100229.28;5056559;28;20386;-80
2023/07/22 11:05:47;;;;;;;4.47;2.03;;;;;;;23.25;47.24;100229.69;5038093;28;20024;-78
2023/07/22 11:08:13;;;;;;;2.10;1.83;;;;;;;23.08;48.88;100223.66;5056170;28;20021;-78
2023/07/22 11:10:53;;;;;;;5.72;2.17;;;;;;;23.10;53.16;100220.97;5054997;28;20104;-79
2023/07/22 11:13:18;;;;;;;5.15;1.92;;;;;;;23.27;54.14;100224.03;5055736;28;20135;-78
2023/07/22 11:15:47;;;;;;;5.00;2.03;;;;;;;23.43;51.18;100227.72;5055955;28;20108;-78
2023/07/22 11:18:13;;;;;;;6.38;1.95;;;;;;;23.59;50.79;100230.06;5056187;28;20021;-79
2023/07/22 11:20:38;;;;;;;2.10;1.90;;;;;;;23.72;49.61;100223.22;5054697;28;20120;-77
2023/07/22 11:23:04;;;;;;;2.50;1.90;;;;;;;23.88;49.35;100215.19;5056096;28;20459;-78
2023/07/22 11:25:29;;;;;;;6.18;2.10;;;;;;;24.28;51.85;100218.94;5055445;28;20025;-77